sensor_id;sensor_type;location;lat;lon;timestamp;temperature;humidity
61412;DHT22;47278;49.732;7.690;2022-08-19T00:01:19;19.10;99.90
61412;DHT22;47278;49.732;7.690;2022-08-19T00:03:45;19.10;99.90
61412;DHT22;47278;49.732;7.690;2022-08-19T00:06:10;19.20;99.90
61412;DHT22;47278;49.732;7.690;2022-08-19T00:08:36;19.10;99.90
61412;DHT22;47278;49.732;7.690;2022-08-19T00:11:02;19.10;99.90
61412;DHT22;47278;49.732;7.690;2022-08-19T00:13:27;19.10;99.90
61412;DHT22;47278;49.732;7.690;2022-08-19T00:15:54;19.10;99.90
61412;DHT22;47278;49.732;7.690;2022-08-19T00:18:20;19.10;99.90
61412;DHT22;47278;49.732;7.690;2022-08-19T00:20:45;19.10;99.90
61412;DHT22;47278;49.732;7.690;2022-08-19T00:23:11;19.10;99.90
61412;DHT22;47278;49.732;7.690;2022-08-19T00:25:37;19.10;99.90
61412;DHT22;47278;49.732;7.690;2022-08-19T00:28:03;19.00;99.90
61412;DHT22;47278;49.732;7.690;2022-08-19T00:30:28;19.10;99.90
61412;DHT22;47278;49.732;7.690;2022-08-19T00:32:54;19.00;99.90
61412;DHT22;47278;49.732;7.690;2022-08-19T00:35:22;19.10;99.90
61412;DHT22;47278;49.732;7.690;2022-08-19T00:37:48;19.00;99.90
61412;DHT22;47278;49.732;7.690;2022-08-19T00:40:14;19.00;99.90
61412;DHT22;47278;49.732;7.690;2022-08-19T00:42:40;19.10;99.90
61412;DHT22;47278;49.732;7.690;2022-08-19T00:45:11;19.00;99.90
61412;DHT22;47278;49.732;7.690;2022-08-19T00:47:37;19.00;99.90
61412;DHT22;47278;49.732;7.690;2022-08-19T00:50:03;19.00;99.90
61412;DHT22;47278;49.732;7.690;2022-08-19T00:52:32;19.00;99.90
61412;DHT22;47278;49.732;7.690;2022-08-19T00:54:59;19.00;99.90
61412;DHT22;47278;49.732;7.690;2022-08-19T00:57:30;19.00;99.90
61412;DHT22;47278;49.732;7.690;2022-08-19T00:59:58;19.00;99.90
61412;DHT22;47278;49.732;7.690;2022-08-19T01:02:25;19.10;99.90
61412;DHT22;47278;49.732;7.690;2022-08-19T01:04:51;19.00;99.90
61412;DHT22;47278;49.732;7.690;2022-08-19T01:07:16;19.00;99.90
61412;DHT22;47278;49.732;7.690;2022-08-19T01:09:42;18.90;99.90
61412;DHT22;47278;49.732;7.690;2022-08-19T01:12:08;18.90;99.90
61412;DHT22;47278;49.732;7.690;2022-08-19T01:14:36;18.90;99.90
61412;DHT22;47278;49.732;7.690;2022-08-19T01:17:02;18.80;99.90
61412;DHT22;47278;49.732;7.690;2022-08-19T01:19:30;18.90;99.90
61412;DHT22;47278;49.732;7.690;2022-08-19T01:24:31;18.90;99.90
61412;DHT22;47278;49.732;7.690;2022-08-19T01:26:57;18.90;99.90
61412;DHT22;47278;49.732;7.690;2022-08-19T01:29:23;18.90;99.90
61412;DHT22;47278;49.732;7.690;2022-08-19T01:31:48;18.90;99.90
61412;DHT22;47278;49.732;7.690;2022-08-19T01:34:17;18.90;99.90
61412;DHT22;47278;49.732;7.690;2022-08-19T01:36:43;18.80;99.90
61412;DHT22;47278;49.732;7.690;2022-08-19T01:39:18;18.70;99.90
61412;DHT22;47278;49.732;7.690;2022-08-19T01:41:44;18.70;99.90
61412;DHT22;47278;49.732;7.690;2022-08-19T01:44:10;18.70;99.90
61412;DHT22;47278;49.732;7.690;2022-08-19T01:46:36;18.60;99.90
61412;DHT22;47278;49.732;7.690;2022-08-19T01:49:03;18.60;99.90
61412;DHT22;47278;49.732;7.690;2022-08-19T01:51:29;18.50;99.90
61412;DHT22;47278;49.732;7.690;2022-08-19T01:53:55;18.50;99.90
61412;DHT22;47278;49.732;7.690;2022-08-19T01:56:22;17.80;99.90
61412;DHT22;47278;49.732;7.690;2022-08-19T01:58:49;18.40;99.90
61412;DHT22;47278;49.732;7.690;2022-08-19T02:01:16;18.30;99.90
61412;DHT22;47278;49.732;7.690;2022-08-19T02:03:42;18.30;99.90
61412;DHT22;47278;49.732;7.690;2022-08-19T02:06:08;18.40;99.90
61412;DHT22;47278;49.732;7.690;2022-08-19T02:08:34;18.40;99.90
61412;DHT22;47278;49.732;7.690;2022-08-19T02:11:00;18.40;99.90
61412;DHT22;47278;49.732;7.690;2022-08-19T02:13:26;18.40;99.90
61412;DHT22;47278;49.732;7.690;2022-08-19T02:15:52;18.30;99.90
61412;DHT22;47278;49.732;7.690;2022-08-19T02:18:17;18.30;99.90
61412;DHT22;47278;49.732;7.690;2022-08-19T02:20:43;18.20;99.90
61412;DHT22;47278;49.732;7.690;2022-08-19T02:23:10;18.10;99.90
61412;DHT22;47278;49.732;7.690;2022-08-19T02:25:35;18.10;99.90
61412;DHT22;47278;49.732;7.690;2022-08-19T02:28:01;17.90;99.90
61412;DHT22;47278;49.732;7.690;2022-08-19T02:30:27;17.90;99.90
61412;DHT22;47278;49.732;7.690;2022-08-19T02:32:52;17.90;99.90
61412;DHT22;47278;49.732;7.690;2022-08-19T02:35:18;18.00;99.90
61412;DHT22;47278;49.732;7.690;2022-08-19T02:37:44;18.00;99.90
61412;DHT22;47278;49.732;7.690;2022-08-19T02:40:29;18.10;99.90
61412;DHT22;47278;49.732;7.690;2022-08-19T02:42:55;17.80;99.90
61412;DHT22;47278;49.732;7.690;2022-08-19T02:45:21;17.70;99.90
61412;DHT22;47278;49.732;7.690;2022-08-19T02:47:48;17.70;99.90
61412;DHT22;47278;49.732;7.690;2022-08-19T02:50:13;17.60;99.90
61412;DHT22;47278;49.732;7.690;2022-08-19T02:52:39;17.60;99.90
61412;DHT22;47278;49.732;7.690;2022-08-19T02:55:05;17.70;99.90
61412;DHT22;47278;49.732;7.690;2022-08-19T02:57:31;17.60;99.90
61412;DHT22;47278;49.732;7.690;2022-08-19T02:59:57;17.60;99.90
61412;DHT22;47278;49.732;7.690;2022-08-19T03:02:22;17.60;99.90
61412;DHT22;47278;49.732;7.690;2022-08-19T03:04:48;17.50;99.90
61412;DHT22;47278;49.732;7.690;2022-08-19T03:07:14;17.40;99.90
61412;DHT22;47278;49.732;7.690;2022-08-19T03:09:40;17.50;99.90
61412;DHT22;47278;49.732;7.690;2022-08-19T03:12:07;17.40;99.90
61412;DHT22;47278;49.732;7.690;2022-08-19T03:14:33;17.30;99.90
61412;DHT22;47278;49.732;7.690;2022-08-19T03:16:59;17.30;99.90
61412;DHT22;47278;49.732;7.690;2022-08-19T03:19:25;17.20;99.90
61412;DHT22;47278;49.732;7.690;2022-08-19T03:21:51;17.10;99.90
61412;DHT22;47278;49.732;7.690;2022-08-19T03:24:17;17.10;99.90
61412;DHT22;47278;49.732;7.690;2022-08-19T03:26:45;17.10;99.90
61412;DHT22;47278;49.732;7.690;2022-08-19T03:29:11;17.10;99.90
61412;DHT22;47278;49.732;7.690;2022-08-19T03:31:38;17.10;99.90
61412;DHT22;47278;49.732;7.690;2022-08-19T03:34:03;17.10;99.90
61412;DHT22;47278;49.732;7.690;2022-08-19T03:36:29;17.00;99.90
61412;DHT22;47278;49.732;7.690;2022-08-19T03:38:56;15.80;99.90
61412;DHT22;47278;49.732;7.690;2022-08-19T03:41:25;16.90;99.90
61412;DHT22;47278;49.732;7.690;2022-08-19T03:43:52;16.80;99.90
61412;DHT22;47278;49.732;7.690;2022-08-19T03:46:19;16.70;99.90
61412;DHT22;47278;49.732;7.690;2022-08-19T03:48:48;16.60;99.90
61412;DHT22;47278;49.732;7.690;2022-08-19T03:51:15;16.50;99.90
61412;DHT22;47278;49.732;7.690;2022-08-19T03:53:41;16.50;99.90
61412;DHT22;47278;49.732;7.690;2022-08-19T03:56:08;16.50;99.90
61412;DHT22;47278;49.732;7.690;2022-08-19T03:58:34;16.60;99.90
61412;DHT22;47278;49.732;7.690;2022-08-19T04:01:00;16.70;99.90
61412;DHT22;47278;49.732;7.690;2022-08-19T04:03:25;16.80;99.90
61412;DHT22;47278;49.732;7.690;2022-08-19T04:05:52;16.80;99.90
61412;DHT22;47278;49.732;7.690;2022-08-19T04:08:19;18.90;99.90
61412;DHT22;47278;49.732;7.690;2022-08-19T04:10:48;16.80;99.90
61412;DHT22;47278;49.732;7.690;2022-08-19T04:13:15;16.70;99.90
61412;DHT22;47278;49.732;7.690;2022-08-19T04:15:42;16.70;99.90
61412;DHT22;47278;49.732;7.690;2022-08-19T04:18:09;16.60;99.90
61412;DHT22;47278;49.732;7.690;2022-08-19T04:20:45;16.60;99.90
61412;DHT22;47278;49.732;7.690;2022-08-19T04:23:11;17.70;99.90
61412;DHT22;47278;49.732;7.690;2022-08-19T04:25:38;16.50;99.90
61412;DHT22;47278;49.732;7.690;2022-08-19T04:28:04;16.50;99.90
61412;DHT22;47278;49.732;7.690;2022-08-19T04:30:30;16.30;99.90
61412;DHT22;47278;49.732;7.690;2022-08-19T04:32:56;16.20;99.90
61412;DHT22;47278;49.732;7.690;2022-08-19T04:35:21;16.30;99.90
61412;DHT22;47278;49.732;7.690;2022-08-19T04:37:47;16.30;99.90
61412;DHT22;47278;49.732;7.690;2022-08-19T04:40:13;16.30;99.90
61412;DHT22;47278;49.732;7.690;2022-08-19T04:43:01;16.30;99.90
61412;DHT22;47278;49.732;7.690;2022-08-19T04:45:27;16.30;99.90
61412;DHT22;47278;49.732;7.690;2022-08-19T04:47:54;16.30;99.90
61412;DHT22;47278;49.732;7.690;2022-08-19T04:50:21;16.30;99.90
61412;DHT22;47278;49.732;7.690;2022-08-19T04:52:49;16.30;99.90
61412;DHT22;47278;49.732;7.690;2022-08-19T04:55:15;16.30;99.90
61412;DHT22;47278;49.732;7.690;2022-08-19T04:57:41;16.20;99.90
61412;DHT22;47278;49.732;7.690;2022-08-19T05:00:10;16.20;99.90
61412;DHT22;47278;49.732;7.690;2022-08-19T05:02:36;16.30;99.90
61412;DHT22;47278;49.732;7.690;2022-08-19T05:05:02;16.20;99.90
61412;DHT22;47278;49.732;7.690;2022-08-19T05:07:28;16.20;99.90
61412;DHT22;47278;49.732;7.690;2022-08-19T05:09:54;14.90;99.90
61412;DHT22;47278;49.732;7.690;2022-08-19T05:12:20;16.10;99.90
61412;DHT22;47278;49.732;7.690;2022-08-19T05:14:46;16.20;99.90
61412;DHT22;47278;49.732;7.690;2022-08-19T05:17:12;16.10;99.90
61412;DHT22;47278;49.732;7.690;2022-08-19T05:19:38;16.10;99.90
61412;DHT22;47278;49.732;7.690;2022-08-19T05:22:22;16.10;99.90
61412;DHT22;47278;49.732;7.690;2022-08-19T05:24:57;16.20;99.90
61412;DHT22;47278;49.732;7.690;2022-08-19T05:27:23;16.10;99.90
61412;DHT22;47278;49.732;7.690;2022-08-19T05:29:48;16.20;99.90
61412;DHT22;47278;49.732;7.690;2022-08-19T05:32:14;16.20;99.90
61412;DHT22;47278;49.732;7.690;2022-08-19T05:34:39;16.20;99.90
61412;DHT22;47278;49.732;7.690;2022-08-19T05:37:05;16.20;99.90
61412;DHT22;47278;49.732;7.690;2022-08-19T05:39:33;16.20;99.90
61412;DHT22;47278;49.732;7.690;2022-08-19T05:42:01;16.30;99.90
61412;DHT22;47278;49.732;7.690;2022-08-19T05:44:28;16.30;99.90
61412;DHT22;47278;49.732;7.690;2022-08-19T05:46:56;16.40;99.90
61412;DHT22;47278;49.732;7.690;2022-08-19T05:49:23;15.10;99.90
61412;DHT22;47278;49.732;7.690;2022-08-19T05:51:50;16.40;99.90
61412;DHT22;47278;49.732;7.690;2022-08-19T05:54:15;16.50;99.90
61412;DHT22;47278;49.732;7.690;2022-08-19T05:56:42;16.50;99.90
61412;DHT22;47278;49.732;7.690;2022-08-19T05:59:08;16.50;99.90
61412;DHT22;47278;49.732;7.690;2022-08-19T06:01:33;16.60;99.90
61412;DHT22;47278;49.732;7.690;2022-08-19T06:04:00;16.60;99.90
61412;DHT22;47278;49.732;7.690;2022-08-19T06:06:25;16.70;99.90
61412;DHT22;47278;49.732;7.690;2022-08-19T06:08:51;16.70;99.90
61412;DHT22;47278;49.732;7.690;2022-08-19T06:13:43;16.90;99.90
61412;DHT22;47278;49.732;7.690;2022-08-19T06:16:08;17.10;99.90
61412;DHT22;47278;49.732;7.690;2022-08-19T06:18:34;17.20;99.90
61412;DHT22;47278;49.732;7.690;2022-08-19T06:21:00;17.30;99.90
61412;DHT22;47278;49.732;7.690;2022-08-19T06:23:28;17.40;99.90
61412;DHT22;47278;49.732;7.690;2022-08-19T06:25:54;17.50;99.90
61412;DHT22;47278;49.732;7.690;2022-08-19T06:28:20;17.60;99.90
61412;DHT22;47278;49.732;7.690;2022-08-19T06:30:46;17.70;99.90
61412;DHT22;47278;49.732;7.690;2022-08-19T06:33:11;17.90;99.90
61412;DHT22;47278;49.732;7.690;2022-08-19T06:35:40;16.90;99.90
61412;DHT22;47278;49.732;7.690;2022-08-19T06:38:06;18.30;99.90
61412;DHT22;47278;49.732;7.690;2022-08-19T06:40:32;18.50;99.90
61412;DHT22;47278;49.732;7.690;2022-08-19T06:42:57;18.60;99.90
61412;DHT22;47278;49.732;7.690;2022-08-19T06:45:25;18.80;99.90
61412;DHT22;47278;49.732;7.690;2022-08-19T06:47:51;18.90;99.90
61412;DHT22;47278;49.732;7.690;2022-08-19T06:50:21;19.00;99.90
61412;DHT22;47278;49.732;7.690;2022-08-19T06:52:47;19.10;99.90
61412;DHT22;47278;49.732;7.690;2022-08-19T06:55:12;19.20;99.90
61412;DHT22;47278;49.732;7.690;2022-08-19T06:57:38;19.30;99.90
61412;DHT22;47278;49.732;7.690;2022-08-19T07:00:04;19.50;99.90
61412;DHT22;47278;49.732;7.690;2022-08-19T07:02:30;19.60;99.90
61412;DHT22;47278;49.732;7.690;2022-08-19T07:04:55;19.80;99.90
61412;DHT22;47278;49.732;7.690;2022-08-19T07:07:23;19.90;99.90
61412;DHT22;47278;49.732;7.690;2022-08-19T07:09:49;19.90;99.90
61412;DHT22;47278;49.732;7.690;2022-08-19T07:12:15;20.00;99.90
61412;DHT22;47278;49.732;7.690;2022-08-19T07:14:41;20.10;99.90
61412;DHT22;47278;49.732;7.690;2022-08-19T07:17:08;20.20;99.90
61412;DHT22;47278;49.732;7.690;2022-08-19T07:19:34;20.30;99.90
61412;DHT22;47278;49.732;7.690;2022-08-19T07:22:01;20.40;99.90
61412;DHT22;47278;49.732;7.690;2022-08-19T07:24:28;20.50;99.90
61412;DHT22;47278;49.732;7.690;2022-08-19T07:26:54;20.50;99.90
61412;DHT22;47278;49.732;7.690;2022-08-19T07:29:21;20.60;99.90
61412;DHT22;47278;49.732;7.690;2022-08-19T07:31:51;20.80;99.90
61412;DHT22;47278;49.732;7.690;2022-08-19T07:34:17;20.90;99.90
61412;DHT22;47278;49.732;7.690;2022-08-19T07:36:43;21.10;99.90
61412;DHT22;47278;49.732;7.690;2022-08-19T07:39:10;21.20;99.90
61412;DHT22;47278;49.732;7.690;2022-08-19T07:41:36;21.30;99.90
61412;DHT22;47278;49.732;7.690;2022-08-19T07:44:02;21.40;99.90
61412;DHT22;47278;49.732;7.690;2022-08-19T07:46:32;21.50;99.90
61412;DHT22;47278;49.732;7.690;2022-08-19T07:48:57;21.70;99.90
61412;DHT22;47278;49.732;7.690;2022-08-19T07:51:23;21.90;99.90
61412;DHT22;47278;49.732;7.690;2022-08-19T07:53:49;22.00;99.90
61412;DHT22;47278;49.732;7.690;2022-08-19T07:56:16;22.10;99.90
61412;DHT22;47278;49.732;7.690;2022-08-19T07:58:43;22.10;99.90
61412;DHT22;47278;49.732;7.690;2022-08-19T08:01:12;22.10;99.90
61412;DHT22;47278;49.732;7.690;2022-08-19T08:03:38;22.20;99.90
61412;DHT22;47278;49.732;7.690;2022-08-19T08:06:23;22.40;99.90
61412;DHT22;47278;49.732;7.690;2022-08-19T08:09:07;22.50;99.90
61412;DHT22;47278;49.732;7.690;2022-08-19T08:11:39;22.60;99.90
61412;DHT22;47278;49.732;7.690;2022-08-19T08:14:05;22.50;99.90
61412;DHT22;47278;49.732;7.690;2022-08-19T08:16:37;22.40;99.90
61412;DHT22;47278;49.732;7.690;2022-08-19T08:19:04;22.50;99.90
61412;DHT22;47278;49.732;7.690;2022-08-19T08:21:31;22.30;99.90
61412;DHT22;47278;49.732;7.690;2022-08-19T08:23:57;22.60;99.90
61412;DHT22;47278;49.732;7.690;2022-08-19T08:26:23;22.60;99.90
61412;DHT22;47278;49.732;7.690;2022-08-19T08:28:48;22.70;99.90
61412;DHT22;47278;49.732;7.690;2022-08-19T08:31:14;22.80;99.90
61412;DHT22;47278;49.732;7.690;2022-08-19T08:33:40;23.00;99.90
61412;DHT22;47278;49.732;7.690;2022-08-19T08:36:07;23.10;99.90
61412;DHT22;47278;49.732;7.690;2022-08-19T08:38:33;23.40;99.90
61412;DHT22;47278;49.732;7.690;2022-08-19T08:41:01;23.50;99.90
61412;DHT22;47278;49.732;7.690;2022-08-19T08:43:37;23.40;99.90
61412;DHT22;47278;49.732;7.690;2022-08-19T08:46:19;23.50;99.90
61412;DHT22;47278;49.732;7.690;2022-08-19T08:51:25;23.90;99.90
61412;DHT22;47278;49.732;7.690;2022-08-19T08:53:52;24.10;99.90
61412;DHT22;47278;49.732;7.690;2022-08-19T08:56:19;23.80;99.90
61412;DHT22;47278;49.732;7.690;2022-08-19T08:58:56;23.90;99.90
61412;DHT22;47278;49.732;7.690;2022-08-19T09:01:23;24.10;99.90
61412;DHT22;47278;49.732;7.690;2022-08-19T09:03:49;23.90;99.90
61412;DHT22;47278;49.732;7.690;2022-08-19T09:06:22;24.00;99.90
61412;DHT22;47278;49.732;7.690;2022-08-19T09:11:59;24.30;99.90
61412;DHT22;47278;49.732;7.690;2022-08-19T09:16:46;24.50;99.90
61412;DHT22;47278;49.732;7.690;2022-08-19T09:19:13;24.90;99.90
61412;DHT22;47278;49.732;7.690;2022-08-19T09:21:39;25.20;99.90
61412;DHT22;47278;49.732;7.690;2022-08-19T09:24:04;25.10;99.90
61412;DHT22;47278;49.732;7.690;2022-08-19T09:26:31;25.40;99.90
61412;DHT22;47278;49.732;7.690;2022-08-19T09:29:00;25.60;99.90
61412;DHT22;47278;49.732;7.690;2022-08-19T09:31:27;25.70;99.90
61412;DHT22;47278;49.732;7.690;2022-08-19T09:33:53;25.80;99.90
61412;DHT22;47278;49.732;7.690;2022-08-19T09:36:23;25.70;99.90
61412;DHT22;47278;49.732;7.690;2022-08-19T09:38:50;25.60;99.90
61412;DHT22;47278;49.732;7.690;2022-08-19T09:41:18;25.80;99.90
61412;DHT22;47278;49.732;7.690;2022-08-19T09:43:44;25.80;99.90
61412;DHT22;47278;49.732;7.690;2022-08-19T09:46:10;25.40;99.90
61412;DHT22;47278;49.732;7.690;2022-08-19T09:48:37;25.40;99.90
61412;DHT22;47278;49.732;7.690;2022-08-19T09:51:06;25.50;99.90
61412;DHT22;47278;49.732;7.690;2022-08-19T09:53:33;25.90;99.90
61412;DHT22;47278;49.732;7.690;2022-08-19T09:55:59;26.20;99.90
61412;DHT22;47278;49.732;7.690;2022-08-19T09:58:24;26.60;99.90
61412;DHT22;47278;49.732;7.690;2022-08-19T10:00:53;26.10;99.90
61412;DHT22;47278;49.732;7.690;2022-08-19T10:03:19;26.10;99.90
61412;DHT22;47278;49.732;7.690;2022-08-19T10:05:45;26.30;99.90
61412;DHT22;47278;49.732;7.690;2022-08-19T10:08:14;26.50;99.90
61412;DHT22;47278;49.732;7.690;2022-08-19T10:10:40;27.10;99.90
61412;DHT22;47278;49.732;7.690;2022-08-19T10:13:08;27.50;99.90
61412;DHT22;47278;49.732;7.690;2022-08-19T10:15:34;27.00;99.90
61412;DHT22;47278;49.732;7.690;2022-08-19T10:18:00;27.10;99.90
61412;DHT22;47278;49.732;7.690;2022-08-19T10:20:25;26.70;99.90
61412;DHT22;47278;49.732;7.690;2022-08-19T10:22:51;26.70;99.90
61412;DHT22;47278;49.732;7.690;2022-08-19T10:25:16;26.50;99.90
61412;DHT22;47278;49.732;7.690;2022-08-19T10:27:42;26.60;99.90
61412;DHT22;47278;49.732;7.690;2022-08-19T10:30:08;26.90;99.90
61412;DHT22;47278;49.732;7.690;2022-08-19T10:32:35;27.50;99.90
61412;DHT22;47278;49.732;7.690;2022-08-19T10:35:01;27.70;99.90
61412;DHT22;47278;49.732;7.690;2022-08-19T10:37:27;27.70;99.90
61412;DHT22;47278;49.732;7.690;2022-08-19T10:39:53;27.70;99.90
61412;DHT22;47278;49.732;7.690;2022-08-19T10:42:19;26.70;99.90
61412;DHT22;47278;49.732;7.690;2022-08-19T10:44:44;28.00;99.90
61412;DHT22;47278;49.732;7.690;2022-08-19T10:47:11;27.20;99.90
61412;DHT22;47278;49.732;7.690;2022-08-19T10:49:37;26.70;99.90
61412;DHT22;47278;49.732;7.690;2022-08-19T10:52:22;26.40;99.90
61412;DHT22;47278;49.732;7.690;2022-08-19T10:55:06;26.50;99.90
61412;DHT22;47278;49.732;7.690;2022-08-19T10:57:55;27.00;99.90
61412;DHT22;47278;49.732;7.690;2022-08-19T11:00:21;26.00;99.90
61412;DHT22;47278;49.732;7.690;2022-08-19T11:02:47;27.80;99.90
61412;DHT22;47278;49.732;7.690;2022-08-19T11:05:13;28.40;99.90
61412;DHT22;47278;49.732;7.690;2022-08-19T11:07:40;28.50;99.90
61412;DHT22;47278;49.732;7.690;2022-08-19T11:10:06;28.50;99.90
61412;DHT22;47278;49.732;7.690;2022-08-19T11:12:32;29.20;99.90
61412;DHT22;47278;49.732;7.690;2022-08-19T11:14:58;29.00;99.90
61412;DHT22;47278;49.732;7.690;2022-08-19T11:17:24;29.20;99.90
61412;DHT22;47278;49.732;7.690;2022-08-19T11:19:50;29.60;99.90
61412;DHT22;47278;49.732;7.690;2022-08-19T11:22:16;28.80;99.90
61412;DHT22;47278;49.732;7.690;2022-08-19T11:24:42;28.80;99.90
61412;DHT22;47278;49.732;7.690;2022-08-19T11:27:08;28.60;99.90
61412;DHT22;47278;49.732;7.690;2022-08-19T11:29:34;27.90;99.90
61412;DHT22;47278;49.732;7.690;2022-08-19T11:32:03;27.60;99.90
61412;DHT22;47278;49.732;7.690;2022-08-19T11:34:28;27.30;99.90
61412;DHT22;47278;49.732;7.690;2022-08-19T11:36:55;27.40;99.90
61412;DHT22;47278;49.732;7.690;2022-08-19T11:39:24;28.40;99.90
61412;DHT22;47278;49.732;7.690;2022-08-19T11:41:50;28.70;99.90
61412;DHT22;47278;49.732;7.690;2022-08-19T11:44:15;29.40;99.90
61412;DHT22;47278;49.732;7.690;2022-08-19T11:46:43;28.60;99.90
61412;DHT22;47278;49.732;7.690;2022-08-19T11:49:12;27.90;99.90
61412;DHT22;47278;49.732;7.690;2022-08-19T11:51:37;27.50;99.90
61412;DHT22;47278;49.732;7.690;2022-08-19T11:54:04;28.10;99.90
61412;DHT22;47278;49.732;7.690;2022-08-19T11:56:29;28.80;99.90
61412;DHT22;47278;49.732;7.690;2022-08-19T11:58:55;29.30;99.90
61412;DHT22;47278;49.732;7.690;2022-08-19T12:01:24;29.50;99.90
61412;DHT22;47278;49.732;7.690;2022-08-19T12:03:51;29.90;99.90
61412;DHT22;47278;49.732;7.690;2022-08-19T12:06:20;29.40;99.90
61412;DHT22;47278;49.732;7.690;2022-08-19T12:08:48;28.70;99.90
61412;DHT22;47278;49.732;7.690;2022-08-19T12:11:14;28.20;99.90
61412;DHT22;47278;49.732;7.690;2022-08-19T12:13:40;27.80;99.90
61412;DHT22;47278;49.732;7.690;2022-08-19T12:16:07;27.60;99.90
61412;DHT22;47278;49.732;7.690;2022-08-19T12:18:33;27.70;99.90
61412;DHT22;47278;49.732;7.690;2022-08-19T12:20:59;28.30;99.90
61412;DHT22;47278;49.732;7.690;2022-08-19T12:23:25;28.90;99.90
61412;DHT22;47278;49.732;7.690;2022-08-19T12:25:51;29.70;99.90
61412;DHT22;47278;49.732;7.690;2022-08-19T12:28:18;30.10;99.90
61412;DHT22;47278;49.732;7.690;2022-08-19T12:30:43;29.20;99.90
61412;DHT22;47278;49.732;7.690;2022-08-19T12:33:09;29.40;99.90
61412;DHT22;47278;49.732;7.690;2022-08-19T12:35:35;29.20;99.90
61412;DHT22;47278;49.732;7.690;2022-08-19T12:38:00;29.20;99.90
61412;DHT22;47278;49.732;7.690;2022-08-19T12:40:28;29.40;99.90
61412;DHT22;47278;49.732;7.690;2022-08-19T12:42:54;29.80;99.90
61412;DHT22;47278;49.732;7.690;2022-08-19T12:45:20;29.70;99.90
61412;DHT22;47278;49.732;7.690;2022-08-19T12:47:45;29.20;99.90
61412;DHT22;47278;49.732;7.690;2022-08-19T12:50:11;29.20;99.90
61412;DHT22;47278;49.732;7.690;2022-08-19T12:52:37;29.30;99.90
61412;DHT22;47278;49.732;7.690;2022-08-19T12:55:03;29.50;99.90
61412;DHT22;47278;49.732;7.690;2022-08-19T12:57:30;30.00;99.90
61412;DHT22;47278;49.732;7.690;2022-08-19T12:59:59;30.50;99.90
61412;DHT22;47278;49.732;7.690;2022-08-19T13:02:24;30.20;99.90
61412;DHT22;47278;49.732;7.690;2022-08-19T13:04:50;30.80;99.90
61412;DHT22;47278;49.732;7.690;2022-08-19T13:07:15;31.20;99.90
61412;DHT22;47278;49.732;7.690;2022-08-19T13:09:41;30.30;99.90
61412;DHT22;47278;49.732;7.690;2022-08-19T13:12:07;30.70;99.90
61412;DHT22;47278;49.732;7.690;2022-08-19T13:14:38;30.80;99.90
61412;DHT22;47278;49.732;7.690;2022-08-19T13:17:05;30.50;99.90
61412;DHT22;47278;49.732;7.690;2022-08-19T13:19:31;30.50;99.90
61412;DHT22;47278;49.732;7.690;2022-08-19T13:21:56;29.30;99.90
61412;DHT22;47278;49.732;7.690;2022-08-19T13:24:23;28.80;99.90
61412;DHT22;47278;49.732;7.690;2022-08-19T13:26:48;28.50;99.90
61412;DHT22;47278;49.732;7.690;2022-08-19T13:29:14;28.70;99.90
61412;DHT22;47278;49.732;7.690;2022-08-19T13:31:58;29.30;99.90
61412;DHT22;47278;49.732;7.690;2022-08-19T13:34:42;29.60;99.90
61412;DHT22;47278;49.732;7.690;2022-08-19T13:37:08;29.00;99.90
61412;DHT22;47278;49.732;7.690;2022-08-19T13:39:33;28.70;99.90
61412;DHT22;47278;49.732;7.690;2022-08-19T13:41:59;29.20;99.90
61412;DHT22;47278;49.732;7.690;2022-08-19T13:44:26;29.40;99.90
61412;DHT22;47278;49.732;7.690;2022-08-19T13:46:55;28.90;99.90
61412;DHT22;47278;49.732;7.690;2022-08-19T13:49:24;28.90;99.90
61412;DHT22;47278;49.732;7.690;2022-08-19T13:51:50;28.70;99.90
61412;DHT22;47278;49.732;7.690;2022-08-19T13:54:15;28.40;99.90
61412;DHT22;47278;49.732;7.690;2022-08-19T13:56:42;28.40;99.90
61412;DHT22;47278;49.732;7.690;2022-08-19T13:59:08;28.10;99.90
61412;DHT22;47278;49.732;7.690;2022-08-19T14:01:33;28.30;99.90
61412;DHT22;47278;49.732;7.690;2022-08-19T14:04:00;28.30;99.90
61412;DHT22;47278;49.732;7.690;2022-08-19T14:06:25;28.30;99.90
61412;DHT22;47278;49.732;7.690;2022-08-19T14:08:51;28.70;99.90
61412;DHT22;47278;49.732;7.690;2022-08-19T14:11:18;29.10;99.90
61412;DHT22;47278;49.732;7.690;2022-08-19T14:13:43;29.50;99.90
61412;DHT22;47278;49.732;7.690;2022-08-19T14:16:12;29.60;99.90
61412;DHT22;47278;49.732;7.690;2022-08-19T14:18:38;29.40;99.90
61412;DHT22;47278;49.732;7.690;2022-08-19T14:21:05;29.10;99.90
61412;DHT22;47278;49.732;7.690;2022-08-19T14:23:31;29.10;99.90
61412;DHT22;47278;49.732;7.690;2022-08-19T14:26:04;29.30;99.90
61412;DHT22;47278;49.732;7.690;2022-08-19T14:28:30;29.50;99.90
61412;DHT22;47278;49.732;7.690;2022-08-19T14:30:56;29.70;99.90
61412;DHT22;47278;49.732;7.690;2022-08-19T14:33:21;29.80;99.90
61412;DHT22;47278;49.732;7.690;2022-08-19T14:35:47;30.10;99.90
61412;DHT22;47278;49.732;7.690;2022-08-19T14:38:16;30.10;99.90
61412;DHT22;47278;49.732;7.690;2022-08-19T14:40:42;30.20;99.90
61412;DHT22;47278;49.732;7.690;2022-08-19T14:43:08;29.80;99.90
61412;DHT22;47278;49.732;7.690;2022-08-19T14:45:35;29.10;99.90
61412;DHT22;47278;49.732;7.690;2022-08-19T14:48:01;29.00;99.90
61412;DHT22;47278;49.732;7.690;2022-08-19T14:50:26;28.90;99.90
61412;DHT22;47278;49.732;7.690;2022-08-19T14:53:00;29.10;99.90
61412;DHT22;47278;49.732;7.690;2022-08-19T14:55:26;29.20;99.90
61412;DHT22;47278;49.732;7.690;2022-08-19T14:57:51;30.40;99.90
61412;DHT22;47278;49.732;7.690;2022-08-19T15:00:20;29.50;99.90
61412;DHT22;47278;49.732;7.690;2022-08-19T15:02:49;30.30;99.90
61412;DHT22;47278;49.732;7.690;2022-08-19T15:05:14;30.60;99.90
61412;DHT22;47278;49.732;7.690;2022-08-19T15:07:40;30.90;99.90
61412;DHT22;47278;49.732;7.690;2022-08-19T15:10:06;31.10;99.90
61412;DHT22;47278;49.732;7.690;2022-08-19T15:12:33;31.10;99.60
61412;DHT22;47278;49.732;7.690;2022-08-19T15:14:59;31.30;98.30
61412;DHT22;47278;49.732;7.690;2022-08-19T15:17:25;31.20;97.70
61412;DHT22;47278;49.732;7.690;2022-08-19T15:19:50;31.70;98.40
61412;DHT22;47278;49.732;7.690;2022-08-19T15:22:16;32.80;97.70
61412;DHT22;47278;49.732;7.690;2022-08-19T15:24:42;32.30;96.20
61412;DHT22;47278;49.732;7.690;2022-08-19T15:27:10;32.70;96.10
61412;DHT22;47278;49.732;7.690;2022-08-19T15:29:36;33.40;95.50
61412;DHT22;47278;49.732;7.690;2022-08-19T15:32:02;34.60;93.90
61412;DHT22;47278;49.732;7.690;2022-08-19T15:34:28;35.20;92.60
61412;DHT22;47278;49.732;7.690;2022-08-19T15:36:56;32.10;93.70
61412;DHT22;47278;49.732;7.690;2022-08-19T15:39:23;33.80;92.60
61412;DHT22;47278;49.732;7.690;2022-08-19T15:41:49;32.10;90.40